Weather reports worldwide

Advertisment
Gela, Italy (16453): temperature & dewpoint: 23.05.2020 16:00:00 - 29.05.2020 16:00:00 (CEST)Gela, Italy (16453): wind speed: 23.05.2020 16:00:00 - 29.05.2020 16:00:00 (CEST)Gela, Italy (16453): wind direction: 23.05.2020 16:00:00 - 29.05.2020 16:00:00 (CEST)Gela, Italy (16453): visibility: 23.05.2020 16:00:00 - 29.05.2020 16:00:00 (CEST)Gela, Italy (16453): sunshine duration: 23.05.2020 16:00:00 - 29.05.2020 16:00:00 (CEST)
Date & Time tt [°C] td [°C] ff [km/h] ff [kn] dd vv [km] sd [min]
29.05.2020 16:00:00 - - - - - - -
29.05.2020 15:00:00 22,0 16,0 13 7 - 10 -
29.05.2020 14:00:00 22,0 18,0 4 2 N 18 60
29.05.2020 13:00:00 21,0 15,0 15 8 - 10 -
29.05.2020 12:00:00 21,0 17,0 13 7 SW 10 -
29.05.2020 11:00:00 21,2 17,2 4 2 N 18 60
29.05.2020 10:00:00 21,0 17,0 8 4 - 10 -
29.05.2020 09:00:00 21,0 15,0 4 2 - 10 -
29.05.2020 08:00:00 19,0 11,8 9 5 ENE 18 60
29.05.2020 07:00:00 - - - - - - -
29.05.2020 06:00:00 - - - - - - -
29.05.2020 05:00:00 - - - - - - -
29.05.2020 04:00:00 - - - - - - -
29.05.2020 03:00:00 - - - - - - -
29.05.2020 02:00:00 - - - - - - -
29.05.2020 01:00:00 - - - - - - -
29.05.2020 00:00:00 - - - - - - -
28.05.2020 23:00:00 - - - - - - -
28.05.2020 22:00:00 - - - - - - -
28.05.2020 21:00:00 - - - - - - -
28.05.2020 20:00:00 21,2 18,2 28 15 W 25 48
28.05.2020 19:00:00 21,0 18,0 26 14 W 10 -
28.05.2020 18:00:00 22,0 18,0 28 15 W 10 -
28.05.2020 17:00:00 22,2 17,6 24 13 W 25 60
28.05.2020 16:00:00 22,0 17,0 24 13 W 10 -
28.05.2020 15:00:00 22,0 17,0 22 12 W 10 -
28.05.2020 14:00:00 22,0 16,7 4 2 N 25 60
28.05.2020 13:00:00 21,0 17,0 18 10 - 10 -
28.05.2020 12:00:00 22,0 17,0 15 8 - 10 -
28.05.2020 11:00:00 21,8 15,9 4 2 N 25 60
28.05.2020 10:00:00 21,0 14,0 11 6 WSW 10 -
28.05.2020 09:00:00 20,0 14,0 5 3 - 10 -
28.05.2020 08:00:00 19,4 15,1 4 2 N 25 60
28.05.2020 07:00:00 - - - - - - -
28.05.2020 06:00:00 - - - - - - -
28.05.2020 05:00:00 - - - - - - -
28.05.2020 04:00:00 - - - - - - -
28.05.2020 03:00:00 - - - - - - -
28.05.2020 02:00:00 - - - - - - -
28.05.2020 01:00:00 - - - - - - -
28.05.2020 00:00:00 - - - - - - -
27.05.2020 23:00:00 - - - - - - -
27.05.2020 22:00:00 - - - - - - -
27.05.2020 21:00:00 - - - - - - -
27.05.2020 20:00:00 21,2 16,0 4 2 N 20 48
27.05.2020 19:00:00 21,0 16,0 15 8 - 10 -
27.05.2020 18:00:00 20,0 18,0 18 10 - 10 -
27.05.2020 17:00:00 22,8 18,4 4 2 N 25 60
27.05.2020 16:00:00 22,0 16,0 21 11 W 10 -
27.05.2020 15:00:00 22,0 15,0 16 9 SW 10 -
27.05.2020 14:00:00 21,4 16,4 11 6 W 25 30
27.05.2020 13:00:00 22,0 17,0 16 9 W 10 -
27.05.2020 12:00:00 21,0 17,0 15 8 SW 10 -
27.05.2020 11:00:00 21,2 18,0 4 2 N 25 60
27.05.2020 10:00:00 21,0 16,0 13 7 SSW 10 -
27.05.2020 09:00:00 20,0 14,0 2 1 - 10 -
27.05.2020 08:00:00 20,0 14,1 8 4 ENE 25 60
27.05.2020 07:00:00 - - - - - - -
27.05.2020 06:00:00 - - - - - - -
27.05.2020 05:00:00 - - - - - - -
27.05.2020 04:00:00 - - - - - - -
27.05.2020 03:00:00 - - - - - - -
27.05.2020 02:00:00 - - - - - - -
27.05.2020 01:00:00 - - - - - - -
27.05.2020 00:00:00 - - - - - - -
26.05.2020 23:00:00 - - - - - - -
26.05.2020 22:00:00 - - - - - - -
26.05.2020 21:00:00 - - - - - - -
26.05.2020 20:00:00 21,8 19,5 8 4 SSW 18 48
26.05.2020 19:00:00 22,0 19,0 9 5 - 10 -
26.05.2020 18:00:00 21,0 18,0 9 5 - 10 -
26.05.2020 17:00:00 21,8 18,2 4 2 N 18 42
26.05.2020 16:00:00 22,0 18,0 13 7 SW 10 -
26.05.2020 15:00:00 22,0 17,0 13 7 SW 10 -
26.05.2020 14:00:00 22,0 17,4 16 9 SW 18 60
26.05.2020 13:00:00 22,0 19,0 16 9 SW 10 -
26.05.2020 12:00:00 22,0 18,0 13 7 - 10 -
26.05.2020 11:00:00 22,0 17,0 4 2 N 18 60
26.05.2020 10:00:00 22,0 17,0 8 4 - 10 -
26.05.2020 09:00:00 22,0 -30,0 4 2 - 10 -
26.05.2020 08:00:00 20,0 16,4 4 2 N 16 60
26.05.2020 07:00:00 - - - - - - -
26.05.2020 06:00:00 - - - - - - -
26.05.2020 05:00:00 - - - - - - -
26.05.2020 04:00:00 - - - - - - -
26.05.2020 03:00:00 - - - - - - -
26.05.2020 02:00:00 - - - - - - -
26.05.2020 01:00:00 - - - - - - -
26.05.2020 00:00:00 - - - - - - -
25.05.2020 23:00:00 - - - - - - -
25.05.2020 22:00:00 - - - - - - -
25.05.2020 21:00:00 - - - - - - -
25.05.2020 20:00:00 21,8 18,8 5 3 SSW 12 36
25.05.2020 19:00:00 23,0 19,0 8 4 SW 10 -
25.05.2020 18:00:00 23,0 18,0 9 5 - 10 -
25.05.2020 17:00:00 22,8 18,4 13 7 SW 12 60
25.05.2020 16:00:00 23,0 19,0 11 6 - 10 -
25.05.2020 15:00:00 24,0 18,0 9 5 - 10 -
25.05.2020 14:00:00 23,6 18,5 11 6 WSW 10 60
25.05.2020 13:00:00 22,0 18,0 11 6 - 10 -
25.05.2020 12:00:00 22,0 19,0 11 6 SW 10 -
25.05.2020 11:00:00 21,2 18,4 18 10 SW 10 60
25.05.2020 10:00:00 21,0 17,0 11 6 SSW 10 -
25.05.2020 09:00:00 22,0 17,0 4 2 NE 10 -
25.05.2020 08:00:00 19,8 16,2 5 3 E 10 54
25.05.2020 07:00:00 - - - - - - -
25.05.2020 06:00:00 - - - - - - -
25.05.2020 05:00:00 - - - - - - -
25.05.2020 04:00:00 - - - - - - -
25.05.2020 03:00:00 - - - - - - -
25.05.2020 02:00:00 - - - - - - -
25.05.2020 01:00:00 - - - - - - -
25.05.2020 00:00:00 - - - - - - -
24.05.2020 23:00:00 - - - - - - -
24.05.2020 22:00:00 - - - - - - -
24.05.2020 21:00:00 - - - - - - -
24.05.2020 20:00:00 21,2 19,5 4 2 N 10 18
24.05.2020 19:00:00 21,0 19,0 15 8 WSW 10 -
24.05.2020 18:00:00 21,0 19,0 21 11 WSW 10 -
24.05.2020 17:00:00 21,8 19,0 21 11 WSW 10 60
24.05.2020 16:00:00 23,0 18,0 24 13 W 10 -
24.05.2020 15:00:00 22,0 17,0 26 14 W 10 -
24.05.2020 14:00:00 22,4 16,4 26 14 W 10 60
24.05.2020 13:00:00 22,0 17,0 15 8 WSW 8 -
24.05.2020 12:00:00 20,0 18,0 13 7 - 8 -
24.05.2020 11:00:00 19,8 17,8 16 9 SW 8 60
24.05.2020 10:00:00 21,0 18,0 11 6 SW 8 -
24.05.2020 09:00:00 21,0 17,0 2 1 - 8 -
24.05.2020 08:00:00 19,2 19,2 5 3 ENE 8 30
24.05.2020 07:00:00 - - - - - - -
24.05.2020 06:00:00 - - - - - - -
24.05.2020 05:00:00 - - - - - - -
24.05.2020 04:00:00 - - - - - - -
24.05.2020 03:00:00 - - - - - - -
24.05.2020 02:00:00 - - - - - - -
24.05.2020 01:00:00 - - - - - - -
24.05.2020 00:00:00 - - - - - - -
23.05.2020 23:00:00 - - - - - - -
23.05.2020 22:00:00 - - - - - - -
23.05.2020 21:00:00 - - - - - - -
23.05.2020 20:00:00 21,2 19,5 8 4 SSW 18 42
23.05.2020 19:00:00 22,0 18,0 13 7 SSW 10 -
23.05.2020 18:00:00 22,0 20,0 8 4 - 10 -
23.05.2020 17:00:00 22,0 19,9 4 2 N 18 -
23.05.2020 16:00:00 22,0 20,0 11 6 - 10 -

tt = temperature
td = dewpoint
ff = wind speed
dd = wind direction
vv = visibility
sd = sunshine duration

Next stations